• Join FlightAware (Why Join?)
  • Login
  • US Flag 
03:22AM EDT


 

Airport Tracker/Info


-or-


 

Live Flight TrackerFlight Track Log ✈ AAL8 ✈ 23-Mar-2012 ✈ PHNL - KDFW

Flight Track Log - Related Links

Times and Time Zones

All times are in EDT time to prevent confusion due to time zone crossing. See the AAL8 flight status page for this flight to view local times or setup timezone preferences in your user account.

Time Position Orientation Groundspeed Altitude Reporting Facility
EDT Latitude Longitude Course Direction KTS MPH feet Rate Location/Type
10:49PM 21.3031 -157.8690 264° West  Level FlightAware Approximate
10:50PM 21.3000 -157.9000 148° Southeast 180 207 1,200  Level Honolulu Center
10:51PM 21.2500 -157.8667 105° East 220 253 3,200 2,280 Climbing Honolulu Center
10:52PM 21.2333 -157.8000 105° East 250 288 5,800 2,640 Climbing Honolulu Center
10:53PM 21.2167 -157.7333 90° East 270 311 8,600 2,640 Climbing Honolulu Center
10:54PM 21.2167 -157.6500 80° East 280 322 11,200 1,980 Climbing Honolulu Center
10:55PM 21.2333 -157.5500 81° East 350 403 12,600 1,800 Climbing Honolulu Center
10:56PM 21.2500 -157.4333 81° East 390 449 14,900 2,220 Climbing Honolulu Center
10:57PM 21.2667 -157.3167 90° East 410 472 17,100 2,280 Climbing Honolulu Center
10:58PM 21.2667 -157.1833 82° East 420 483 19,500 2,160 Climbing Honolulu Center
10:59PM 21.2833 -157.0500 82° East 440 506 21,500 1,920 Climbing Honolulu Center
11:00PM 21.3000 -156.9167 82° East 460 529 23,400 1,680 Climbing Honolulu Center
11:01PM 21.3167 -156.7833 83° East 480 552 25,000 1,500 Climbing Honolulu Center
11:02PM 21.3333 -156.6333 77° East 500 575 26,500 1,380 Climbing Honolulu Center
11:03PM 21.3667 -156.4833 78° East 510 587 27,900 1,560 Climbing Honolulu Center
11:04PM 21.4000 -156.3167 77° East 520 598 29,700 1,680 Climbing Honolulu Center
11:05PM 21.4333 -156.1667 75° East 530 610 31,300 1,380 Climbing Honolulu Center
11:06PM 21.4667 -156.0333 77° East 530 610 32,500 1,200 Climbing Honolulu Center
11:07PM 21.5000 -155.8833 78° East 530 610 33,800 1,200 Climbing Honolulu Center
11:08PM 21.5333 -155.7167 77° East 530 610 35,000 540 Climbing Honolulu Center
11:09PM 21.5667 -155.5667 77° East 510 587 35,000  Level Honolulu Center
11:10PM 21.6000 -155.4167 77° East 500 575 35,000  Level Honolulu Center
11:11PM 21.6333 -155.2667 77° East 520 598 35,000  Level Honolulu Center
11:12PM 21.6667 -155.1167 77° East 520 598 35,000  Level Honolulu Center
11:13PM 21.7000 -154.9667 77° East 530 610 35,000 -540 Level Honolulu Center
11:14PM 21.7333 -154.8167 78° East 530 610 34,000 -540 Descending Honolulu Center
11:15PM 21.7667 -154.6500 77° East 520 598 34,000  Level Honolulu Center
11:16PM 21.8000 -154.5000 77° East 530 610 34,000  Level Honolulu Center
11:17PM 21.8333 -154.3500 77° East 530 610 34,000  Level Honolulu Center
11:18PM 21.8667 -154.2000 78° East 530 610 34,000  Level Honolulu Center
11:19PM 21.9000 -154.0333 77° East 530 610 34,000  Level Honolulu Center
11:20PM 21.9333 -153.8833 76° East 530 610 34,000  Level Honolulu Center
11:21PM 21.9667 -153.7333 65° Northeast 530 610 34,000  Level Honolulu Center
12:20AM 25.2833 -145.5167 65° Northeast 478 550 34,000  Level Oakland Oceanic (ODAPS)
01:11AM 27.9167 -138.8500 68° East 458 527 35,000  Climbing Oakland Oceanic (ODAPS)
02:02AM 30.2833 -131.6333 71° East 516 594 35,000  Level Oakland Oceanic (ODAPS)
02:10AM 30.7107 -130.1547 72° East 516 594 35,000  Level FlightAware Transoceanic
02:11AM 30.7553 -129.9964 72° East 516 594 35,000  Level FlightAware Transoceanic
02:12AM 30.7996 -129.8379 72° East 516 594 35,000  Level FlightAware Transoceanic
02:13AM 30.8438 -129.6792 72° East 516 594 35,000  Level FlightAware Transoceanic
02:14AM 30.8878 -129.5205 72° East 516 594 35,000  Level FlightAware Transoceanic
02:15AM 30.9315 -129.3615 72° East 516 594 35,000  Level FlightAware Transoceanic
02:16AM 30.9751 -129.2025 72° East 516 594 35,000  Level FlightAware Transoceanic
02:17AM 31.0185 -129.0432 72° East 516 594 35,000  Level FlightAware Transoceanic
02:18AM 31.0617 -128.8839 72° East 516 594 35,000  Level FlightAware Transoceanic
02:19AM 31.1047 -128.7244 73° East 516 594 35,000  Level FlightAware Transoceanic
02:20AM 31.1475 -128.5647 73° East 516 594 35,000  Level FlightAware Transoceanic
02:21AM 31.1901 -128.4049 73° East 516 594 35,000  Level FlightAware Transoceanic
02:22AM 31.2325 -128.2450 73° East 516 594 35,000  Level FlightAware Transoceanic
02:23AM 31.2747 -128.0849 73° East 516 594 35,000  Level FlightAware Transoceanic
02:24AM 31.3168 -127.9247 73° East 516 594 35,000  Level FlightAware Transoceanic
02:25AM 31.3586 -127.7643 73° East 516 594 35,000  Level FlightAware Transoceanic
02:26AM 31.4002 -127.6038 73° East 516 594 35,000  Level FlightAware Transoceanic
02:27AM 31.4416 -127.4432 73° East 516 594 35,000  Level FlightAware Transoceanic
02:28AM 31.4828 -127.2824 73° East 516 594 35,000  Level FlightAware Transoceanic
02:29AM 31.5238 -127.1214 73° East 516 594 35,000  Level FlightAware Transoceanic
02:30AM 31.5646 -126.9604 73° East 516 594 35,000  Level FlightAware Transoceanic
02:31AM 31.6052 -126.7991 74° East 516 594 35,000  Level FlightAware Transoceanic
02:32AM 31.6457 -126.6378 74° East 516 594 35,000  Level FlightAware Transoceanic
02:33AM 31.6859 -126.4763 74° East 516 594 35,000  Level FlightAware Transoceanic
02:34AM 31.7259 -126.3146 74° East 516 594 35,000  Level FlightAware Transoceanic
02:35AM 31.7657 -126.1529 74° East 516 594 35,000  Level FlightAware Transoceanic
02:36AM 31.8053 -125.9910 74° East 516 594 35,000  Level FlightAware Transoceanic
02:37AM 31.8446 -125.8289 74° East 516 594 35,000  Level FlightAware Transoceanic
02:38AM 31.8838 -125.6667 74° East 516 594 35,000  Level FlightAware Transoceanic
02:39AM 31.9228 -125.5044 74° East 516 594 35,000  Level FlightAware Transoceanic
02:40AM 31.9615 -125.3419 74° East 516 594 35,000  Level FlightAware Transoceanic
02:41AM 32.0001 -125.1793 74° East 516 594 35,000  Level FlightAware Transoceanic
02:42AM 32.0385 -125.0166 75° East 516 594 35,000  Level FlightAware Transoceanic
02:43AM 32.0766 -124.8537 75° East 516 594 35,000  Level FlightAware Transoceanic
02:44AM 32.1146 -124.6907 75° East 516 594 35,000  Level FlightAware Transoceanic
02:45AM 32.1523 -124.5275 75° East 516 594 35,000  Level FlightAware Transoceanic
02:46AM 32.1898 -124.3643 75° East 516 594 35,000  Level FlightAware Transoceanic
02:47AM 32.2271 -124.2008 76° East 516 594 35,000  Level FlightAware Transoceanic
02:48AM 32.2621 -124.0399 77° East 516 594 35,000  Level FlightAware Transoceanic
02:49AM 32.2936 -123.8830 77° East 516 594 35,000  Level FlightAware Transoceanic
02:50AM 32.3248 -123.7261 77° East 516 594 35,000  Level FlightAware Transoceanic
02:51AM 32.3559 -123.5690 77° East 516 594 35,000  Level FlightAware Transoceanic
02:52AM 32.3868 -123.4118 77° East 516 594 35,000  Level FlightAware Transoceanic
02:53AM 32.4175 -123.2545 77° East 516 594 35,000  Level FlightAware Transoceanic
02:54AM 32.4480 -123.0971 75° East 516 594 35,000  Level FlightAware Transoceanic
02:55AM 32.4801 -122.9420 75° East  Level FlightAware Approximate
02:56AM 32.5234 -122.7907 76° East  Level FlightAware Approximate
02:57AM 32.5664 -122.6392 76° East  Level FlightAware Approximate
02:58AM 32.6093 -122.4876 76° East  Level FlightAware Approximate
02:59AM 32.6520 -122.3358 77° East  Level FlightAware Approximate
03:00AM 32.6945 -122.1839 77° East  Level FlightAware Approximate
03:01AM 32.6904 -122.0259 76° East  Level FlightAware Approximate
03:02AM 32.7333 -121.8740 77° East  Level FlightAware Approximate
03:03AM 32.7761 -121.7221 77° East  Level FlightAware Approximate
03:04AM 32.8186 -121.5699 78° East  Level FlightAware Approximate
03:05AM 32.8610 -121.4177 79° East  Level FlightAware Approximate
03:06AM 32.9032 -121.2653 79° East  Level FlightAware Approximate
03:07AM 32.9452 -121.1127 81° East  Level FlightAware Approximate
03:08AM 32.9870 -120.9600 82° East  Level FlightAware Approximate
03:09AM 33.0286 -120.8072 84° East  Level FlightAware Approximate
03:10AM 33.0701 -120.6542 86° East  Level FlightAware Approximate
03:11AM 33.1254 -120.5089 91° East  Level FlightAware Approximate
03:12AM 33.1612 -120.3538 97° East  Level FlightAware Approximate
03:12AM 33.1122 -119.8708 79° East 515 593 35,100  Level Los Angeles Center
03:13AM 33.1397 -119.7022 78° East 513 590 35,100  Level Los Angeles Center
03:14AM 33.1689 -119.5339 78° East 512 589 35,100  Level Los Angeles Center
03:15AM 33.1992 -119.3667 77° East 510 587 35,100  Level Los Angeles Center
03:16AM 33.2308 -119.1981 77° East 513 590 35,100  Level Los Angeles Center
03:17AM 33.2642 -119.0297 78° East 515 593 35,100  Level Los Angeles Center
03:18AM 33.2944 -118.8631 78° East 511 588 35,100  Level Los Angeles Center
03:19AM 33.3247 -118.6958 78° East 510 587 35,100  Level Los Angeles Center
03:20AM 33.3550 -118.5289 78° East 511 588 35,100  Level Los Angeles Center
03:21AM 33.3839 -118.3631 81° East 508 585 35,100  Level Los Angeles Center
03:22AM 33.4056 -118.1950 83° East 509 586 35,100  Level Los Angeles Center
03:24AM 33.4236 -118.0275 86° East 508 585 35,100  Level Los Angeles Center
03:25AM 33.4328 -117.8592 86° East 506 582 35,100  Level Los Angeles Center
03:26AM 33.4425 -117.6911 86° East 503 579 35,100  Level Los Angeles Center
03:27AM 33.4525 -117.5219 86° East 504 580 35,100  Level Los Angeles Center
03:28AM 33.4633 -117.3528 86° East 504 580 35,100  Level Los Angeles Center
03:29AM 33.4728 -117.1839 87° East 502 578 35,100  Level Los Angeles Center
03:30AM 33.4781 -117.0378 86° East 501 577 35,100  Level Los Angeles Center
03:31AM 33.4869 -116.8692 87° East 504 580 35,100 -60 Level Los Angeles Center
03:32AM 33.4953 -116.7008 87° East 505 581 35,000 -60 Descending Los Angeles Center
03:33AM 33.5036 -116.5325 86° East 504 580 35,000  Level Los Angeles Center
03:34AM 33.5122 -116.3653 87° East 503 579 35,000  Level Los Angeles Center
03:35AM 33.5203 -116.1983 87° East 501 577 35,100 240 Climbing Los Angeles Center
03:36AM 33.5272 -116.0331 88° East 497 572 35,600 480 Climbing Los Angeles Center
03:37AM 33.5322 -115.8653 87° East 501 577 36,100 480 Climbing Los Angeles Center
03:38AM 33.5406 -115.6972 87° East 503 579 36,600 420 Climbing Los Angeles Center
03:39AM 33.5469 -115.5297 88° East 503 579 37,000 180 Climbing Los Angeles Center
03:40AM 33.5522 -115.3611 87° East 505 581 37,000  Level Los Angeles Center
03:41AM 33.5594 -115.1936 88° East 504 580 37,000  Level Los Angeles Center
03:42AM 33.5650 -115.0275 87° East 501 577 37,000  Level Los Angeles Center
03:43AM 33.5714 -114.8636 88° East 496 571 37,000  Level Los Angeles Center
03:45AM 33.5850 -114.4719 88° East 476 548 37,000  Level Albuquerque Center
03:46AM 33.5906 -114.3056 90° East 482 555 37,000  Level Albuquerque Center
03:47AM 33.5908 -114.1561 87° East 488 562 37,100  Climbing Albuquerque Center
03:48AM 33.5978 -113.9922 88° East 495 570 37,100  Level Albuquerque Center
03:49AM 33.6017 -113.8103 86° East 495 570 37,100 -60 Level Albuquerque Center
03:50AM 33.6103 -113.6489 89° East 490 564 37,000 -60 Descending Albuquerque Center
03:51AM 33.6122 -113.4897 88° East 490 564 37,000  Level Albuquerque Center
03:52AM 33.6164 -113.3253 88° East 490 564 37,000  Level Albuquerque Center
03:53AM 33.6203 -113.1611 88° East 490 564 37,000  Level Albuquerque Center
03:54AM 33.6239 -112.9992 89° East 490 564 37,000  Level Albuquerque Center
03:55AM 33.6272 -112.8347 89° East 483 556 37,000  Level Albuquerque Center
03:56AM 33.6300 -112.6781 90° East 483 556 37,000  Level Albuquerque Center
03:57AM 33.6306 -112.5258 89° East 483 556 37,100  Climbing Albuquerque Center
03:58AM 33.6331 -112.3664 89° East 483 556 37,100  Level Albuquerque Center
03:59AM 33.6356 -112.2069 89° East 477 549 37,100  Level Albuquerque Center
04:00AM 33.6378 -112.0425 89° East 477 549 37,100  Level Albuquerque Center
04:01AM 33.6397 -111.8856 90° East 477 549 37,100  Level Albuquerque Center
04:02AM 33.6394 -111.7283 88° East 477 549 37,100  Level Albuquerque Center
04:03AM 33.6428 -111.5714 89° East 477 549 37,100  Level Albuquerque Center
04:04AM 33.6442 -111.4119 89° East 477 549 37,100  Level Albuquerque Center
04:05AM 33.6453 -111.2547 89° East 477 549 37,100  Level Albuquerque Center
04:06AM 33.6481 -111.0978 90° East 477 549 37,100  Level Albuquerque Center
04:07AM 33.6469 -110.9381 90° East 477 549 37,100  Level Albuquerque Center
04:08AM 33.6478 -110.7658 91° East 477 549 37,100  Level Albuquerque Center
04:09AM 33.6458 -110.6036 89° East 477 549 37,100  Level Albuquerque Center
04:10AM 33.6481 -110.4442 92° East 477 549 37,100  Level Albuquerque Center
04:11AM 33.6433 -110.3019 90° East 472 543 37,100  Level Albuquerque Center
04:12AM 33.6431 -110.1397 90° East 477 549 37,100  Level Albuquerque Center
04:13AM 33.6422 -109.9825 91° East 477 549 37,100  Level Albuquerque Center
04:14AM 33.6394 -109.8228 90° East 477 549 37,100  Level Albuquerque Center
04:15AM 33.6386 -109.6608 91° East 477 549 37,100  Level Albuquerque Center
04:16AM 33.6372 -109.5036 90° East 477 549 37,100  Level Albuquerque Center
04:17AM 33.6381 -109.3439 92° East 477 549 37,100  Level Albuquerque Center
04:18AM 33.6342 -109.1842 90° East 477 549 37,100  Level Albuquerque Center
04:19AM 33.6344 -109.0247 92° East 477 549 37,100  Level Albuquerque Center
04:20AM 33.6303 -108.8650 90° East 477 549 37,100  Level Albuquerque Center
04:21AM 33.6300 -108.7053 91° East 477 549 37,100  Level Albuquerque Center
04:22AM 33.6278 -108.5431 91° East 477 549 37,100  Level Albuquerque Center
04:23AM 33.6250 -108.3836 91° East 477 549 37,100  Level Albuquerque Center
04:24AM 33.6219 -108.2214 93° East 477 549 37,100 -60 Level Albuquerque Center
04:25AM 33.6147 -108.0544 91° East 469 540 37,000 -60 Descending Albuquerque Center
04:26AM 33.6114 -107.8922 91° East 469 540 37,000  Level Albuquerque Center
04:27AM 33.6100 -107.7300 92° East 474 545 37,000  Level Albuquerque Center
04:28AM 33.6061 -107.5731 92° East 479 551 37,000  Level Albuquerque Center
04:29AM 33.6022 -107.4161 92° East 479 551 37,000  Level Albuquerque Center
04:30AM 33.5981 -107.2514 92° East 479 551 37,000  Level Albuquerque Center
04:31AM 33.5936 -107.0944 92° East 479 551 37,000  Level Albuquerque Center
04:32AM 33.5889 -106.9325 92° East 479 551 37,000  Level Albuquerque Center
04:33AM 33.5842 -106.7703 92° East 479 551 37,000  Level Albuquerque Center
04:34AM 33.5789 -106.6061 92° East 479 551 37,000  Level Albuquerque Center
04:35AM 33.5736 -106.4439 93° East 479 551 37,000  Level Albuquerque Center
04:36AM 33.5661 -106.2822 92° East 479 551 37,000  Level Albuquerque Center
04:37AM 33.5603 -106.1228 92° East 479 551 37,000  Level Albuquerque Center
04:38AM 33.5544 -105.9608 93° East 479 551 37,000  Level Albuquerque Center
04:39AM 33.5461 -105.7967 92° East 479 551 37,000  Level Albuquerque Center
04:40AM 33.5419 -105.6372 95° East 479 551 37,000  Level Albuquerque Center
04:41AM 33.5292 -105.4781 93° East 479 551 37,100  Climbing Albuquerque Center
04:42AM 33.5225 -105.3361 94° East 479 551 37,100  Level Albuquerque Center
04:43AM 33.5131 -105.1597 91° East 479 551 37,100  Level Albuquerque Center
04:44AM 33.5106 -105.0178 93° East 484 557 37,100  Level Albuquerque Center
04:45AM 33.5028 -104.8411 93° East 472 543 37,100  Level Albuquerque Center
04:46AM 33.4956 -104.6969 92° East 477 549 37,100  Level Albuquerque Center
04:47AM 33.4897 -104.5353 94° East 477 549 37,100  Level Albuquerque Center
04:48AM 33.4792 -104.3589 93° East 477 549 37,100  Level Albuquerque Center
04:49AM 33.4733 -104.2172 93° East 477 549 37,100  Level Albuquerque Center
04:51AM 33.4556 -103.8339 95° East 483 556 37,100  Level Fort Worth Center
04:52AM 33.4447 -103.6764 94° East 475 547 37,100  Level Fort Worth Center
04:53AM 33.4358 -103.5189 96° East 475 547 37,100  Level Fort Worth Center
04:54AM 33.4225 -103.3614 94° East 481 554 37,100  Level Fort Worth Center
04:55AM 33.4133 -103.2039 94° East 481 554 37,100  Level Fort Worth Center
04:56AM 33.4053 -103.0617 95° East 476 548 37,100  Level Fort Worth Center
04:57AM 33.3936 -102.9017 94° East 484 557 37,100  Level Fort Worth Center
04:58AM 33.3836 -102.7467 95° East 475 547 37,100  Level Fort Worth Center
04:59AM 33.3719 -102.5744 96° East 475 547 37,100  Level Fort Worth Center
05:00AM 33.3578 -102.4119 95° East 473 544 37,100  Level Fort Worth Center
05:01AM 33.3472 -102.2547 95° East 473 544 37,100  Level Fort Worth Center
05:02AM 33.3364 -102.0975 95° East 480 552 37,100  Level Fort Worth Center
05:03AM 33.3256 -101.9381 94° East 480 552 37,100  Level Fort Worth Center
05:04AM 33.3164 -101.7833 94° East 480 552 37,100  Level Fort Worth Center
05:05AM 33.3069 -101.6364 94° East 482 555 37,100  Level Fort Worth Center
05:06AM 33.2958 -101.4667 96° East 482 555 37,100  Level Fort Worth Center
05:07AM 33.2836 -101.3247 94° East 482 555 37,100  Level Fort Worth Center
05:08AM 33.2725 -101.1478 94° East 482 555 37,100  Level Fort Worth Center
05:09AM 33.2639 -101.0058 96° East 482 555 37,100  Level Fort Worth Center
05:10AM 33.2494 -100.8511 96° East 482 555 37,100  Level Fort Worth Center
05:11AM 33.2350 -100.6942 94° East 482 555 37,100  Level Fort Worth Center
05:12AM 33.2244 -100.5350 95° East 482 555 37,100  Level Fort Worth Center
05:13AM 33.2117 -100.3756 96° East 482 555 37,100  Level Fort Worth Center
05:14AM 33.1967 -100.2036 96° East 482 555 37,100  Level Fort Worth Center
05:15AM 33.1814 -100.0444 93° East 482 555 37,100  Level Fort Worth Center
05:16AM 33.1742 -99.8828 88° East 482 555 37,100  Level Fort Worth Center
05:17AM 33.1794 -99.7242 88° East 482 555 37,100  Level Fort Worth Center
05:18AM 33.1844 -99.5656 87° East 477 549 37,100 -480 Level Fort Worth Center
05:19AM 33.1911 -99.4067 87° East 477 549 36,200 -1,320 Descending Fort Worth Center
05:20AM 33.1978 -99.2456 92° East 477 549 34,500 -1,500 Descending Fort Worth Center
05:21AM 33.1939 -99.0817 103° East 477 549 33,300 -1,440 Descending Fort Worth Center
05:22AM 33.1625 -98.9197 103° East 483 556 31,700 -2,400 Descending Fort Worth Center
05:23AM 33.1331 -98.7631 106° East 483 556 28,600 -2,820 Descending Fort Worth Center
05:24AM 33.0950 -98.6036 103° East 491 565 26,100 -2,280 Descending Fort Worth Center
05:25AM 33.0708 -98.4819 106° East 491 565 24,100 -2,400 Descending Fort Worth Center
05:26AM 33.0325 -98.3203 104° East 468 539 21,300 -2,760 Descending Fort Worth Center
05:27AM 33.0003 -98.1639 103° East 452 520 18,600 -2,640 Descending Fort Worth Center
05:28AM 32.9808 -98.0639 103° East 439 505 16,800 -2,400 Descending FAA TRACON SMA TRACON (SMA)
05:29AM 32.9639 -97.9794 104° East 428 493 15,300 -2,400 Descending FAA TRACON SMA TRACON (SMA)
05:29AM 32.9447 -97.8861 105° East 420 483 13,600 -2,520 Descending FAA TRACON SMA TRACON (SMA)
05:30AM 32.9236 -97.7947 105° East 413 475 12,000 -2,100 Descending FAA TRACON SMA TRACON (SMA)
05:31AM 32.9053 -97.7156 105° East 403 464 10,800 -1,320 Descending FAA TRACON SMA TRACON (SMA)
05:31AM 32.8875 -97.6347 105° East 363 418 10,300 -600 Descending FAA TRACON SMA TRACON (SMA)
05:32AM 32.8717 -97.5661 105° East 307 353 10,000 -1,020 Descending FAA TRACON SMA TRACON (SMA)
05:33AM 32.8589 -97.5094 105° East 289 333 9,000 -1,500 Descending FAA TRACON SMA TRACON (SMA)
05:33AM 32.8444 -97.4442 105° East 294 338 8,000 -1,800 Descending FAA TRACON SMA TRACON (SMA)
05:34AM 32.8300 -97.3806 105° East 287 330 6,600 -2,100 Descending FAA TRACON SMA TRACON (SMA)
05:35AM 32.8167 -97.3211 105° East 272 313 5,200 -2,040 Descending FAA TRACON SMA TRACON (SMA)
05:35AM 32.8053 -97.2692 105° East 262 302 3,900 -1,500 Descending FAA TRACON SMA TRACON (SMA)
05:36AM 32.7925 -97.2133 105° East 253 291 3,200 -780 Descending FAA TRACON SMA TRACON (SMA)
05:37AM 32.7808 -97.1611 101° East 234 269 2,900 -180 Descending FAA TRACON SMA TRACON (SMA)
05:37AM 32.7736 -97.1167 90° East 222 255 3,000 -120 Climbing FAA TRACON SMA TRACON (SMA)
05:38AM 32.7736 -97.0686 56° Northeast 207 238 2,800 -600 Descending FAA TRACON SMA TRACON (SMA)
05:39AM 32.7925 -97.0347 North 182 209 2,200 -840 Descending FAA TRACON SMA TRACON (SMA)
05:39AM 32.8178 -97.0297 360° North 150 173 1,700 -780 Descending FAA TRACON SMA TRACON (SMA)
05:40AM 32.8475 -97.0297 360° North 154 177 1,200 -780 Descending FAA TRACON SMA TRACON (SMA)